Time;durP1;ratioP1;P1;durP2;ratioP2;P2;SDS_P1;SDS_P2;PMS_P1;PMS_P2;Temp;Humidity;BMP_temperature;BMP_pressure;BME280_temperature;BME280_humidity;BME280_pressure;Samples;Min_cycle;Max_cycle;Signal;HPM_P1;HPM_P2
2023/01/20 00:00:18;;;;;;;0.80;0.80;;;;;;;8.16;76.73;93967.03;5116404;28;20194;-72
2023/01/20 00:02:45;;;;;;;0.70;0.70;;;;;;;8.09;76.51;93980.63;5117099;28;20204;-72
2023/01/20 00:05:12;;;;;;;0.70;0.70;;;;;;;8.13;76.71;93976.03;5117339;28;20202;-72
2023/01/20 00:07:40;;;;;;;1.75;1.00;;;;;;;8.23;76.79;93965.59;5117116;28;20180;-72
2023/01/20 00:10:08;;;;;;;0.70;0.70;;;;;;;8.25;75.56;93911.88;5116035;28;20611;-72
2023/01/20 00:12:34;;;;;;;1.10;1.00;;;;;;;8.36;77.36;93895.56;5117270;28;20192;-72
2023/01/20 00:15:01;;;;;;;0.88;0.88;;;;;;;8.08;78.30;93806.03;5115973;28;20195;-72
2023/01/20 00:17:28;;;;;;;0.80;0.80;;;;;;;7.81;79.39;93785.19;5115572;28;20636;-72
2023/01/20 00:19:55;;;;;;;0.70;0.70;;;;;;;7.85;79.72;93750.38;5116868;28;20218;-72
2023/01/20 00:22:22;;;;;;;0.80;0.70;;;;;;;7.90;79.90;93758.28;5116755;28;20199;-71
2023/01/20 00:24:50;;;;;;;0.73;0.70;;;;;;;7.76;80.63;93767.06;5115766;28;20663;-72
2023/01/20 00:27:17;;;;;;;0.80;0.80;;;;;;;7.69;81.16;93786.94;5116208;28;20188;-71
2023/01/20 00:29:43;;;;;;;0.80;0.80;;;;;;;7.76;81.76;93810.19;5116606;28;20184;-71
2023/01/20 00:32:10;;;;;;;0.95;0.93;;;;;;;7.89;80.97;93804.16;5116560;28;20257;-71
2023/01/20 00:34:37;;;;;;;0.80;0.80;;;;;;;8.02;81.00;93785.53;5116666;28;20248;-71
2023/01/20 00:37:04;;;;;;;1.00;1.00;;;;;;;7.94;81.61;93770.91;5115679;28;20192;-71
2023/01/20 00:39:31;;;;;;;1.50;1.40;;;;;;;7.80;81.89;93776.16;5116479;28;20237;-71
2023/01/20 00:42:00;;;;;;;1.27;1.15;;;;;;;7.80;82.29;93761.63;5115424;28;20216;-71
2023/01/20 00:44:26;;;;;;;1.10;1.10;;;;;;;7.76;82.58;93766.28;5115473;28;20203;-71
2023/01/20 00:46:53;;;;;;;1.92;1.30;;;;;;;7.84;82.81;93774.28;5116218;28;20184;-71
2023/01/20 00:49:20;;;;;;;1.70;1.60;;;;;;;7.93;82.13;93763.03;5115808;28;20531;-71
2023/01/20 00:51:47;;;;;;;1.67;1.40;;;;;;;8.02;81.60;93766.31;5115800;28;20188;-71
2023/01/20 00:54:13;;;;;;;1.80;1.70;;;;;;;8.08;80.84;93772.28;5116026;28;20200;-71
2023/01/20 00:56:40;;;;;;;2.08;1.88;;;;;;;7.98;80.93;93770.97;5114852;28;20610;-71
2023/01/20 00:59:09;;;;;;;2.17;1.98;;;;;;;7.96;80.08;93768.59;5115791;28;20176;-71
2023/01/20 01:01:35;;;;;;;2.10;1.88;;;;;;;8.06;80.26;93771.84;5115595;28;20280;-72
2023/01/20 01:04:02;;;;;;;2.00;1.80;;;;;;;8.07;79.69;93757.00;5114856;28;20200;-71
2023/01/20 01:06:29;;;;;;;2.15;1.60;;;;;;;8.15;79.04;93761.41;5115170;28;20199;-71
2023/01/20 01:08:56;;;;;;;1.65;1.55;;;;;;;8.09;78.79;93760.13;5114941;28;20203;-71
2023/01/20 01:11:23;;;;;;;1.45;1.10;;;;;;;8.08;78.05;93762.09;5116488;28;20216;-71
2023/01/20 01:13:50;;;;;;;1.10;1.00;;;;;;;8.18;77.70;93785.41;5114885;28;20252;-71
2023/01/20 01:16:18;;;;;;;1.10;1.10;;;;;;;8.25;77.41;93757.25;5115969;28;20198;-71
2023/01/20 01:18:45;;;;;;;1.00;0.90;;;;;;;8.11;74.55;93764.13;5114922;28;20195;-71
2023/01/20 01:21:13;;;;;;;0.90;0.90;;;;;;;8.28;75.78;93762.00;5114653;28;20207;-71
2023/01/20 01:23:40;;;;;;;0.90;0.90;;;;;;;8.39;76.40;93757.50;5115897;28;20199;-71
2023/01/20 01:26:07;;;;;;;1.10;1.00;;;;;;;8.49;76.16;93767.81;5115623;28;20603;-71
2023/01/20 01:28:34;;;;;;;0.88;0.88;;;;;;;8.53;74.16;93752.19;5114486;28;20203;-72
2023/01/20 01:31:01;;;;;;;0.88;0.80;;;;;;;8.62;73.74;93763.69;5114870;28;20199;-72
2023/01/20 01:33:29;;;;;;;1.75;0.90;;;;;;;8.72;73.67;93747.75;5116205;28;20207;-72
2023/01/20 01:35:56;;;;;;;0.77;0.70;;;;;;;8.64;73.04;93744.91;5114850;28;20709;-71
2023/01/20 01:38:23;;;;;;;1.63;0.88;;;;;;;8.71;73.19;93755.16;5115922;28;20202;-71
2023/01/20 01:40:51;;;;;;;0.93;0.82;;;;;;;8.71;73.00;93738.66;5118970;28;20195;-71
2023/01/20 01:43:22;;;;;;;1.10;1.00;;;;;;;8.75;73.56;93741.47;5119551;28;20203;-71
2023/01/20 01:45:49;;;;;;;0.90;0.90;;;;;;;8.77;74.76;93741.91;5119406;28;20223;-71
2023/01/20 01:48:16;;;;;;;1.10;1.10;;;;;;;8.75;75.25;93753.28;5118977;28;20233;-71
2023/01/20 01:50:47;;;;;;;0.88;0.88;;;;;;;8.81;74.69;93762.75;5118585;28;20202;-71
2023/01/20 01:53:15;;;;;;;0.70;0.70;;;;;;;8.78;74.68;93760.75;5119708;28;20187;-71
2023/01/20 01:55:46;;;;;;;0.85;0.85;;;;;;;8.82;74.48;93758.88;5119116;28;20287;-71
2023/01/20 01:58:15;;;;;;;1.58;0.90;;;;;;;8.79;74.39;93778.84;5119041;28;20210;-71
2023/01/20 02:00:42;;;;;;;2.13;0.80;;;;;;;8.79;74.46;93767.06;5119216;28;20184;-71
2023/01/20 02:03:09;;;;;;;0.70;0.70;;;;;;;8.77;73.92;93766.63;5118468;28;20565;-71
2023/01/20 02:05:37;;;;;;;0.60;0.60;;;;;;;8.80;74.15;93768.66;5119896;28;20188;-70
2023/01/20 02:08:05;;;;;;;0.73;0.73;;;;;;;8.84;74.19;93763.97;5118895;28;20199;-70
2023/01/20 02:10:32;;;;;;;0.77;0.77;;;;;;;8.84;73.88;93750.22;5119401;28;20192;-71
2023/01/20 02:12:59;;;;;;;0.90;0.90;;;;;;;8.84;73.77;93740.03;5119252;28;20214;-71
2023/01/20 02:15:28;;;;;;;0.95;0.93;;;;;;;8.83;74.01;93743.94;5118670;28;20199;-71
2023/01/20 02:18:09;;;;;;;0.90;0.90;;;;;;;8.79;73.99;93732.13;5118643;28;20218;-71
2023/01/20 02:21:15;;;;;;;1.02;0.95;;;;;;;8.78;73.80;93732.47;5118314;28;20631;-71
2023/01/20 02:23:58;;;;;;;0.95;0.95;;;;;;;8.77;74.22;93742.69;5095243;28;20666;-72
2023/01/20 02:26:39;;;;;;;1.20;1.10;;;;;;;8.78;73.68;93747.00;5117919;28;20242;-71
2023/01/20 02:29:47;;;;;;;1.10;1.00;;;;;;;8.77;73.73;93739.16;5118016;28;20191;-71
2023/01/20 02:32:33;;;;;;;1.02;1.02;;;;;;;8.75;73.51;93733.22;5080103;27;20214;-71
2023/01/20 02:35:04;;;;;;;0.90;0.90;;;;;;;8.75;73.63;93734.03;5117688;28;20212;-71
2023/01/20 02:37:37;;;;;;;0.80;0.80;;;;;;;8.71;73.69;93732.38;5118817;28;20253;-71
2023/01/20 02:40:13;;;;;;;0.90;0.90;;;;;;;8.61;74.21;93725.59;5118901;28;20195;-71
2023/01/20 02:42:44;;;;;;;0.90;0.90;;;;;;;8.57;74.56;93719.25;5118654;28;20230;-71
2023/01/20 02:45:15;;;;;;;0.90;0.90;;;;;;;8.54;74.79;93714.53;5118000;28;20191;-71
2023/01/20 02:47:48;;;;;;;1.25;0.93;;;;;;;8.54;75.01;93714.53;5117940;28;20196;-73
2023/01/20 02:50:20;;;;;;;1.25;1.05;;;;;;;8.52;74.85;93714.09;5117614;28;20210;-72
2023/01/20 02:52:52;;;;;;;0.90;0.90;;;;;;;8.50;75.10;93716.44;5118168;28;20265;-72
2023/01/20 02:55:23;;;;;;;1.30;1.20;;;;;;;8.42;75.40;93705.34;5118503;28;20180;-71
2023/01/20 02:57:55;;;;;;;1.50;1.40;;;;;;;8.41;75.60;93697.47;5118250;28;20232;-71
2023/01/20 03:00:25;;;;;;;1.77;1.67;;;;;;;8.42;76.39;93683.38;5117544;28;20264;-71
2023/01/20 03:02:54;;;;;;;1.90;1.80;;;;;;;8.40;76.17;93680.19;5118221;28;20215;-71
2023/01/20 03:05:23;;;;;;;2.10;1.90;;;;;;;8.38;76.12;93679.75;5117348;28;20195;-71
2023/01/20 03:07:52;;;;;;;2.20;2.00;;;;;;;8.35;76.31;93687.91;5117940;28;20608;-71
2023/01/20 03:10:21;;;;;;;2.30;1.88;;;;;;;8.39;76.28;93700.59;5118106;27;20531;-71
2023/01/20 03:12:51;;;;;;;2.30;2.10;;;;;;;8.38;76.47;93699.00;5117697;28;20529;-71
2023/01/20 03:15:21;;;;;;;2.38;1.92;;;;;;;8.41;76.58;93694.72;5117355;28;20244;-70
2023/01/20 03:17:48;;;;;;;1.92;1.60;;;;;;;8.43;76.45;93695.16;5118137;28;20183;-71
2023/01/20 03:20:17;;;;;;;1.80;1.70;;;;;;;8.42;76.41;93683.38;5117463;28;20195;-71
2023/01/20 03:22:44;;;;;;;1.80;1.70;;;;;;;8.43;76.18;93690.44;5117789;28;20211;-71
2023/01/20 03:25:11;;;;;;;2.20;1.98;;;;;;;8.39;76.34;93700.59;5117590;28;20240;-71
2023/01/20 03:27:38;;;;;;;1.77;1.67;;;;;;;8.39;76.58;93702.56;5117239;28;20217;-71
2023/01/20 03:30:08;;;;;;;1.80;1.70;;;;;;;8.39;76.54;93691.56;5117053;28;20199;-71
2023/01/20 03:32:34;;;;;;;1.60;1.50;;;;;;;8.41;76.76;93698.25;5117449;28;20218;-71
2023/01/20 03:35:01;;;;;;;1.75;1.50;;;;;;;8.39;77.07;93694.31;5116503;28;20604;-70
2023/01/20 03:37:30;;;;;;;1.75;1.38;;;;;;;8.38;76.92;93692.69;5117445;28;20188;-70
2023/01/20 03:39:57;;;;;;;1.40;1.30;;;;;;;8.42;77.36;93699.84;5117753;28;20261;-71
2023/01/20 03:42:28;;;;;;;1.27;1.17;;;;;;;8.42;77.19;93702.59;5099501;28;20234;-71
2023/01/20 03:45:01;;;;;;;1.30;1.20;;;;;;;8.41;77.32;93708.44;5116920;28;20199;-71
2023/01/20 03:47:38;;;;;;;0.93;0.93;;;;;;;8.42;77.57;93701.78;5117593;28;20180;-71
2023/01/20 03:50:08;;;;;;;1.05;0.93;;;;;;;8.44;77.72;93693.97;5117366;28;20183;-71
2023/01/20 03:52:41;;;;;;;0.90;0.90;;;;;;;8.45;77.63;93676.31;5117442;28;20187;-71
2023/01/20 03:55:12;;;;;;;1.50;1.25;;;;;;;8.40;77.98;93663.69;5116376;28;20195;-73
2023/01/20 03:57:42;;;;;;;1.35;1.20;;;;;;;8.40;78.50;93666.44;5117133;28;20363;-72
2023/01/20 04:00:11;;;;;;;1.40;1.20;;;;;;;8.38;79.16;93666.00;5116399;28;20195;-71
2023/01/20 04:02:39;;;;;;;1.27;1.17;;;;;;;8.33;79.88;93652.59;5114977;28;20556;-72
2023/01/20 04:05:07;;;;;;;2.00;1.30;;;;;;;8.29;80.07;93643.50;5116176;28;20195;-71
2023/01/20 04:07:35;;;;;;;1.45;1.08;;;;;;;8.29;80.93;93653.72;5116225;28;20249;-71
2023/01/20 04:10:06;;;;;;;1.38;1.27;;;;;;;8.32;80.93;93652.97;5116783;28;20199;-71
2023/01/20 04:12:32;;;;;;;1.77;1.67;;;;;;;8.35;80.98;93649.47;5116246;28;20194;-71
2023/01/20 04:15:00;;;;;;;1.20;1.10;;;;;;;8.34;80.47;93658.88;5115586;28;20211;-71
2023/01/20 04:17:28;;;;;;;1.92;1.55;;;;;;;8.31;80.46;93646.66;5116794;28;20199;-71
2023/01/20 04:19:55;;;;;;;1.60;1.40;;;;;;;8.34;80.73;93634.94;5115845;28;20608;-71
2023/01/20 04:22:25;;;;;;;2.78;1.70;;;;;;;8.34;80.36;93629.44;5116695;28;20209;-71
2023/01/20 04:24:55;;;;;;;2.35;2.15;;;;;;;8.35;80.38;93624.72;5115928;28;20196;-71
2023/01/20 04:27:23;;;;;;;1.42;1.33;;;;;;;8.36;80.36;93623.59;5115901;28;20210;-71
2023/01/20 04:29:50;;;;;;;2.08;1.67;;;;;;;8.42;80.19;93628.41;5116307;28;20195;-71
2023/01/20 04:32:16;;;;;;;3.50;2.30;;;;;;;8.37;80.26;93617.75;5115993;28;20569;-71
2023/01/20 04:34:43;;;;;;;2.53;2.28;;;;;;;8.35;80.51;93611.81;5115690;28;20188;-71
2023/01/20 04:37:10;;;;;;;2.13;1.75;;;;;;;8.33;80.71;93610.59;5115526;28;20199;-71
2023/01/20 04:39:37;;;;;;;2.17;1.92;;;;;;;8.34;80.58;93632.19;5115816;28;20260;-70
2023/01/20 04:42:03;;;;;;;1.70;1.60;;;;;;;8.34;80.86;93634.94;5116502;28;20195;-71
2023/01/20 04:44:32;;;;;;;1.77;1.67;;;;;;;8.31;80.92;93638.41;5115534;28;20268;-71
2023/01/20 04:46:59;;;;;;;1.98;1.77;;;;;;;8.30;81.78;93645.09;5115042;28;20196;-71
2023/01/20 04:49:26;;;;;;;2.67;1.70;;;;;;;8.30;82.22;93656.06;5116750;28;20195;-71
2023/01/20 04:51:53;;;;;;;1.77;1.67;;;;;;;8.27;82.21;93661.53;5115219;28;20214;-72
2023/01/20 04:54:19;;;;;;;2.30;2.08;;;;;;;8.29;82.51;93660.00;5115576;28;20195;-71
2023/01/20 04:56:47;;;;;;;2.28;2.08;;;;;;;8.27;82.39;93664.28;5116001;28;20227;-72
2023/01/20 04:59:14;;;;;;;2.50;2.08;;;;;;;8.24;82.91;93660.31;5115809;28;20206;-72
2023/01/20 05:01:42;;;;;;;2.35;2.15;;;;;;;8.28;83.15;93674.91;5116103;28;20200;-72
2023/01/20 05:04:09;;;;;;;2.60;2.40;;;;;;;8.37;82.96;93688.34;5115671;28;20200;-72
2023/01/20 05:06:36;;;;;;;2.80;2.03;;;;;;;8.40;82.69;93690.38;5114831;28;20525;-72
2023/01/20 05:09:03;;;;;;;2.53;2.30;;;;;;;8.42;82.59;93699.84;5114795;28;20210;-72
2023/01/20 05:11:29;;;;;;;2.55;2.35;;;;;;;8.38;82.36;93690.75;5116019;28;20181;-72
2023/01/20 05:13:56;;;;;;;2.60;2.40;;;;;;;8.35;82.72;93688.72;5115303;28;20187;-72
2023/01/20 05:16:24;;;;;;;2.85;2.58;;;;;;;8.35;82.45;93685.16;5115608;28;20203;-72
2023/01/20 05:18:54;;;;;;;3.22;2.60;;;;;;;8.37;81.79;93666.38;5115850;28;20187;-72
2023/01/20 05:21:21;;;;;;;2.92;2.72;;;;;;;8.35;81.95;93666.75;5115771;28;20187;-73
2023/01/20 05:23:47;;;;;;;2.97;2.78;;;;;;;8.34;81.82;93689.88;5115817;28;20204;-72
2023/01/20 05:26:14;;;;;;;3.53;3.13;;;;;;;8.36;81.98;93693.06;5115256;28;20208;-71
2023/01/20 05:28:42;;;;;;;3.33;2.72;;;;;;;8.36;82.18;93695.81;5115008;28;20202;-71
2023/01/20 05:31:09;;;;;;;3.45;3.15;;;;;;;8.34;82.32;93695.38;5114854;28;20191;-70
2023/01/20 05:33:38;;;;;;;3.70;3.40;;;;;;;8.36;82.48;93697.75;5114856;28;20599;-71
2023/01/20 05:36:07;;;;;;;3.85;3.50;;;;;;;8.34;82.19;93705.56;5115056;28;20260;-71
2023/01/20 05:38:34;;;;;;;3.55;3.10;;;;;;;8.32;82.23;93707.91;5114788;28;20203;-71
2023/01/20 05:41:01;;;;;;;4.10;3.70;;;;;;;8.31;82.48;93698.84;5115526;28;20196;-70
2023/01/20 05:43:27;;;;;;;4.38;3.97;;;;;;;8.28;82.48;93671.34;5115479;28;20212;-69
2023/01/20 05:45:55;;;;;;;3.80;3.50;;;;;;;8.27;82.62;93665.06;5114442;28;20241;-69
2023/01/20 05:48:21;;;;;;;3.97;3.60;;;;;;;8.23;82.67;93655.19;5114460;28;20200;-70
2023/01/20 05:50:48;;;;;;;4.03;3.63;;;;;;;8.19;82.64;93642.19;5114309;28;20188;-71
2023/01/20 05:53:17;;;;;;;3.78;3.47;;;;;;;8.18;82.97;93650.81;5115447;28;20237;-70
2023/01/20 05:55:44;;;;;;;7.57;6.38;;;;;;;8.12;82.65;93624.84;5114497;28;20203;-70
2023/01/20 05:58:11;;;;;;;13.52;12.32;;;;;;;8.04;82.93;93651.41;5115048;28;20225;-70
2023/01/20 06:00:38;;;;;;;11.85;10.75;;;;;;;8.03;83.11;93679.25;5114561;28;20241;-69
2023/01/20 06:03:04;;;;;;;10.52;9.63;;;;;;;8.08;83.53;93676.97;5114785;28;20199;-72
2023/01/20 06:05:32;;;;;;;11.00;10.02;;;;;;;8.15;83.25;93659.81;5114934;28;20248;-70
2023/01/20 06:07:59;;;;;;;10.80;9.80;;;;;;;8.18;83.11;93686.53;5115387;28;20429;-68
2023/01/20 06:10:27;;;;;;;10.70;9.75;;;;;;;8.19;83.01;93660.63;5115991;28;20245;-71
2023/01/20 06:12:55;;;;;;;11.30;10.20;;;;;;;8.15;83.12;93649.59;5115723;28;20192;-71
2023/01/20 06:15:24;;;;;;;12.05;11.05;;;;;;;8.19;83.32;93655.16;5115400;28;20233;-72
2023/01/20 06:17:50;;;;;;;15.60;14.10;;;;;;;8.19;83.05;93677.91;5115376;28;20585;-69
2023/01/20 06:20:18;;;;;;;13.57;12.43;;;;;;;8.22;83.13;93692.06;5115559;28;20195;-70
2023/01/20 06:22:45;;;;;;;9.13;8.23;;;;;;;8.26;83.32;93681.94;5115495;28;20176;-69
2023/01/20 06:25:11;;;;;;;11.05;10.15;;;;;;;8.27;83.10;93673.31;5116824;28;20278;-69
2023/01/20 06:27:40;;;;;;;10.30;9.30;;;;;;;8.25;83.38;93678.38;5118443;28;20599;-70
2023/01/20 06:30:08;;;;;;;8.90;8.20;;;;;;;8.28;83.51;93685.06;5118641;28;20281;-71
2023/01/20 06:32:35;;;;;;;8.13;7.43;;;;;;;8.28;83.68;93669.41;5118290;28;20620;-70
2023/01/20 06:35:01;;;;;;;8.57;7.80;;;;;;;8.30;83.75;93671.78;5118115;28;20603;-71
2023/01/20 06:37:28;;;;;;;8.57;7.78;;;;;;;8.33;84.26;93679.28;5118433;28;20194;-70
2023/01/20 06:39:55;;;;;;;9.52;8.65;;;;;;;8.31;83.96;93678.84;5118651;28;20544;-69
2023/01/20 06:42:22;;;;;;;9.65;8.75;;;;;;;8.31;84.23;93668.63;5118313;28;20536;-69
2023/01/20 06:44:50;;;;;;;13.73;10.63;;;;;;;8.28;84.02;93669.41;5118057;28;20215;-70
2023/01/20 06:47:16;;;;;;;12.77;10.82;;;;;;;8.23;84.29;93666.97;5119003;28;20187;-70
2023/01/20 06:49:43;;;;;;;14.18;12.68;;;;;;;8.20;84.43;93654.75;5118148;28;20203;-69
2023/01/20 06:52:10;;;;;;;11.60;10.32;;;;;;;8.23;84.59;93658.72;5118838;28;20196;-70
2023/01/20 06:54:36;;;;;;;8.05;6.95;;;;;;;8.28;84.64;93663.91;5118029;28;20194;-69
2023/01/20 06:57:03;;;;;;;5.97;5.47;;;;;;;8.37;84.22;93664.44;5117400;28;20243;-69
2023/01/20 06:59:30;;;;;;;5.85;5.38;;;;;;;8.42;84.13;93658.63;5118753;28;20198;-70
2023/01/20 07:01:58;;;;;;;5.13;4.72;;;;;;;8.43;83.60;93664.91;5118070;28;20191;-70
2023/01/20 07:04:25;;;;;;;4.10;3.80;;;;;;;8.44;83.61;93661.78;5118564;28;20212;-70
2023/01/20 07:06:52;;;;;;;4.28;3.90;;;;;;;8.44;83.93;93647.25;5118455;28;20187;-70
2023/01/20 07:09:18;;;;;;;4.00;3.70;;;;;;;8.48;83.86;93650.84;5118478;28;20184;-70
2023/01/20 07:11:45;;;;;;;3.83;3.53;;;;;;;8.49;83.93;93654.38;5118683;28;20194;-70
2023/01/20 07:14:12;;;;;;;3.50;3.30;;;;;;;8.48;82.74;93652.81;5117233;28;20424;-67
2023/01/20 07:16:39;;;;;;;2.58;2.38;;;;;;;8.52;82.13;93657.16;5118659;28;20199;-72
2023/01/20 07:19:07;;;;;;;2.00;1.90;;;;;;;8.54;81.86;93657.59;5118602;27;20192;-73
2023/01/20 07:21:33;;;;;;;2.00;1.80;;;;;;;8.58;81.32;93647.44;5117802;28;20624;-73
2023/01/20 07:24:01;;;;;;;2.50;2.30;;;;;;;8.60;81.24;93642.34;5117793;28;20223;-73
2023/01/20 07:26:28;;;;;;;2.97;2.67;;;;;;;8.60;81.08;93649.78;5118138;28;20290;-73
2023/01/20 07:28:54;;;;;;;2.88;2.67;;;;;;;8.58;81.03;93661.19;5117361;28;20202;-72
2023/01/20 07:31:24;;;;;;;3.53;3.03;;;;;;;8.59;80.95;93643.50;5117519;28;20200;-72
2023/01/20 07:33:51;;;;;;;2.85;2.55;;;;;;;8.63;81.04;93640.81;5118628;27;20191;-72
2023/01/20 07:36:19;;;;;;;2.88;2.67;;;;;;;8.62;81.07;93633.75;5117019;28;20203;-73
2023/01/20 07:38:47;;;;;;;3.40;3.10;;;;;;;8.64;81.08;93629.47;5119181;28;20196;-72
2023/01/20 07:41:15;;;;;;;4.30;3.90;;;;;;;8.64;80.75;93628.63;5117512;28;20196;-72
2023/01/20 07:43:42;;;;;;;4.43;4.03;;;;;;;8.64;80.60;93626.72;5117863;28;20224;-72
2023/01/20 07:46:10;;;;;;;3.67;3.38;;;;;;;8.65;80.53;93619.25;5118269;28;20184;-72
2023/01/20 07:48:37;;;;;;;4.60;4.20;;;;;;;8.62;80.43;93625.50;5117279;28;20211;-73
2023/01/20 07:51:05;;;;;;;3.88;3.47;;;;;;;8.61;80.60;93621.16;5118040;28;20192;-74
2023/01/20 07:53:35;;;;;;;4.80;4.28;;;;;;;8.63;80.75;93622.34;5117840;28;20191;-74
2023/01/20 07:56:03;;;;;;;3.88;3.10;;;;;;;8.61;80.34;93612.94;5117741;28;20246;-74
2023/01/20 07:58:30;;;;;;;2.40;2.20;;;;;;;8.66;79.96;93598.84;5116958;28;20196;-73
2023/01/20 08:00:57;;;;;;;2.33;2.13;;;;;;;8.59;78.88;93613.28;5117804;28;20192;-72
2023/01/20 08:03:24;;;;;;;4.20;2.90;;;;;;;8.62;78.93;93623.53;5117773;28;20188;-72
2023/01/20 08:05:51;;;;;;;4.25;3.83;;;;;;;8.66;78.88;93616.13;5117083;28;20215;-73
2023/01/20 08:08:18;;;;;;;3.20;3.00;;;;;;;8.63;79.29;93600.38;5117116;28;20204;-72
2023/01/20 08:10:46;;;;;;;3.25;2.95;;;;;;;8.66;79.42;93596.09;5117095;28;20199;-72
2023/01/20 08:13:14;;;;;;;3.25;3.05;;;;;;;8.55;78.65;93579.47;5116590;28;20230;-73
2023/01/20 08:15:40;;;;;;;3.42;3.22;;;;;;;8.56;79.15;93583.00;5117026;28;20199;-70
2023/01/20 08:18:26;;;;;;;3.22;2.97;;;;;;;8.55;79.21;93597.94;5117439;28;20236;-71
2023/01/20 08:21:18;;;;;;;2.50;2.30;;;;;;;8.59;78.19;93604.25;5117307;28;20186;-71
2023/01/20 08:24:05;;;;;;;2.58;2.40;;;;;;;8.55;77.94;93612.44;5116951;28;20210;-71
2023/01/20 08:26:52;;;;;;;2.58;2.38;;;;;;;8.59;77.22;93612.50;5117343;28;20317;-71
2023/01/20 08:29:37;;;;;;;2.20;2.00;;;;;;;8.59;76.26;93609.75;5117200;28;20187;-73
2023/01/20 08:32:23;;;;;;;2.20;2.08;;;;;;;8.65;76.22;93605.50;5117028;28;20222;-72
2023/01/20 08:35:09;;;;;;;3.22;2.80;;;;;;;8.70;76.25;93599.66;5116759;28;20198;-72
2023/01/20 08:37:36;;;;;;;3.03;2.55;;;;;;;8.74;76.74;93588.69;5116904;28;20203;-71
2023/01/20 08:40:05;;;;;;;3.53;2.78;;;;;;;8.77;76.60;93574.22;5116710;28;20288;-70
2023/01/20 08:42:33;;;;;;;2.60;2.40;;;;;;;8.72;76.75;93549.81;5116558;28;20199;-72
2023/01/20 08:45:00;;;;;;;3.03;2.72;;;;;;;8.70;77.02;93544.69;5116512;28;20215;-71
2023/01/20 08:47:27;;;;;;;4.10;2.80;;;;;;;8.73;77.06;93551.41;5115594;28;20200;-71
2023/01/20 08:49:54;;;;;;;4.13;3.58;;;;;;;8.71;77.75;93559.22;5115559;28;20199;-73
2023/01/20 08:52:21;;;;;;;4.57;4.03;;;;;;;8.77;78.02;93542.00;5115752;28;20202;-71
2023/01/20 08:54:48;;;;;;;7.53;4.53;;;;;;;8.80;78.38;93537.72;5116252;28;20199;-70
2023/01/20 08:57:15;;;;;;;5.13;4.00;;;;;;;8.88;78.23;93533.84;5114837;28;20280;-74
2023/01/20 08:59:43;;;;;;;4.18;3.50;;;;;;;8.92;78.17;93546.47;5115520;28;20199;-72
2023/01/20 09:02:09;;;;;;;5.10;4.60;;;;;;;8.93;78.52;93555.50;5116110;28;20561;-71
2023/01/20 09:04:36;;;;;;;5.85;5.25;;;;;;;8.99;79.55;93556.72;5115409;28;20271;-73
2023/01/20 09:07:04;;;;;;;7.07;5.90;;;;;;;9.07;79.66;93555.63;5116124;28;20203;-73
2023/01/20 09:09:31;;;;;;;5.70;5.20;;;;;;;9.13;79.80;93556.06;5115388;28;20191;-72
2023/01/20 09:11:58;;;;;;;6.15;5.65;;;;;;;9.14;78.79;93544.69;5116566;28;20199;-72
2023/01/20 09:14:25;;;;;;;6.22;5.63;;;;;;;9.21;78.39;93554.16;5115302;28;20506;-71
2023/01/20 09:16:53;;;;;;;5.47;4.78;;;;;;;9.19;77.75;93553.75;5115499;28;20184;-72
2023/01/20 09:19:20;;;;;;;5.43;4.38;;;;;;;9.23;77.90;93541.63;5115306;28;20203;-73
2023/01/20 09:21:47;;;;;;;5.03;4.40;;;;;;;9.25;77.67;93546.72;5115150;28;20451;-74
2023/01/20 09:24:14;;;;;;;5.45;4.47;;;;;;;9.25;77.71;93547.50;5116114;28;20215;-72
2023/01/20 09:26:41;;;;;;;4.03;3.63;;;;;;;9.29;77.62;93544.78;5098122;28;20207;-73
2023/01/20 09:29:10;;;;;;;5.95;4.43;;;;;;;9.30;77.35;93544.44;5115781;28;20179;-73
2023/01/20 09:31:37;;;;;;;5.75;4.95;;;;;;;9.34;77.77;93528.72;5115138;28;20199;-73
2023/01/20 09:34:05;;;;;;;5.45;4.25;;;;;;;9.38;77.88;93531.50;5116195;28;20179;-74
2023/01/20 09:36:32;;;;;;;5.15;4.70;;;;;;;9.40;77.89;93538.22;5115130;28;20196;-71
2023/01/20 09:44:43;;;;;;;2.40;2.20;;;;;;;9.40;74.99;93529.97;5114969;28;20212;-72
2023/01/20 09:47:25;;;;;;;2.10;1.90;;;;;;;9.42;75.40;93537.03;5115084;28;20564;-72
2023/01/20 09:53:07;;;;;;;2.00;1.90;;;;;;;9.46;75.21;93535.88;5115807;28;20219;-72
2023/01/20 09:55:45;;;;;;;1.50;1.40;;;;;;;9.44;74.44;93538.25;5114570;28;20196;-71
2023/01/20 09:58:22;;;;;;;1.60;1.50;;;;;;;9.45;74.76;93526.06;5115906;28;20191;-72
2023/01/20 10:00:54;;;;;;;1.55;1.45;;;;;;;9.50;74.59;93516.63;5118884;28;20195;-72
2023/01/20 10:03:25;;;;;;;1.70;1.60;;;;;;;9.44;73.73;93527.22;5120041;28;20203;-73
2023/01/20 10:05:55;;;;;;;2.58;2.08;;;;;;;9.46;74.42;93518.59;5118942;28;20272;-74
2023/01/20 10:08:26;;;;;;;2.05;1.77;;;;;;;9.48;74.44;93514.28;5119769;28;20194;-73
2023/01/20 10:10:56;;;;;;;1.60;1.50;;;;;;;9.51;75.25;93518.22;5118947;28;20264;-74
2023/01/20 10:13:27;;;;;;;3.85;1.90;;;;;;;9.51;74.63;93513.50;5118765;28;20194;-73
2023/01/20 10:15:56;;;;;;;2.67;2.20;;;;;;;9.53;74.85;93494.66;5119533;28;20276;-71
2023/01/20 10:18:28;;;;;;;2.90;2.28;;;;;;;9.55;75.59;93484.06;5119401;28;20191;-71
2023/01/20 10:21:00;;;;;;;2.13;1.92;;;;;;;9.57;76.06;93462.41;5118695;28;20200;-71
2023/01/20 10:23:30;;;;;;;3.00;2.55;;;;;;;9.59;76.93;93468.34;5119498;28;20180;-71
2023/01/20 10:26:00;;;;;;;2.13;1.85;;;;;;;9.62;75.91;93470.34;5118129;28;20666;-71
2023/01/20 10:28:29;;;;;;;2.45;2.25;;;;;;;9.62;76.05;93481.34;5118913;28;20206;-72
2023/01/20 10:30:57;;;;;;;3.17;2.10;;;;;;;9.61;77.89;93478.97;5119441;28;20198;-71
2023/01/20 10:33:27;;;;;;;4.70;4.30;;;;;;;9.65;77.62;93477.00;5118428;28;20257;-74
2023/01/20 10:35:58;;;;;;;3.60;3.30;;;;;;;9.68;77.58;93476.25;5119376;28;20203;-71
2023/01/20 10:38:34;;;;;;;4.43;3.88;;;;;;;9.67;78.08;93482.16;5120130;28;20200;-71
2023/01/20 10:41:03;;;;;;;4.55;4.00;;;;;;;9.60;76.97;93480.13;5119248;28;20615;-72
2023/01/20 10:43:30;;;;;;;8.52;7.53;;;;;;;9.59;78.00;93484.88;5119425;28;20207;-73
2023/01/20 10:46:07;;;;;;;7.55;6.95;;;;;;;9.61;77.95;93479.75;5119178;28;20207;-72
2023/01/20 10:48:55;;;;;;;7.50;6.80;;;;;;;9.62;79.59;93475.03;5120052;28;20244;-72
2023/01/20 10:51:29;;;;;;;5.82;4.93;;;;;;;9.63;79.59;93471.13;5119526;28;20620;-72
2023/01/20 10:54:04;;;;;;;6.40;5.80;;;;;;;9.61;79.53;93465.97;5119808;28;20583;-72
2023/01/20 10:56:35;;;;;;;6.07;5.47;;;;;;;9.59;79.29;93476.59;5117669;28;20230;-72
2023/01/20 10:59:07;;;;;;;5.43;4.68;;;;;;;9.59;79.54;93475.81;5119003;28;20620;-71
2023/01/20 11:01:35;;;;;;;7.70;6.05;;;;;;;9.59;78.67;93487.63;5120684;28;20188;-72
2023/01/20 11:04:02;;;;;;;12.85;11.75;;;;;;;9.56;78.66;93490.34;5119056;28;20195;-73
2023/01/20 11:06:30;;;;;;;7.05;6.40;;;;;;;9.52;78.33;93492.28;5117448;28;20218;-73
2023/01/20 11:08:58;;;;;;;6.82;4.90;;;;;;;9.56;78.83;93493.09;5119763;27;20184;-71
2023/01/20 11:11:26;;;;;;;6.70;4.82;;;;;;;9.57;78.18;93491.91;5117535;28;20553;-71
2023/01/20 11:13:53;;;;;;;5.43;4.50;;;;;;;9.57;77.64;93489.16;5119224;28;20207;-71
2023/01/20 11:16:23;;;;;;;5.53;4.80;;;;;;;9.57;77.45;93481.69;5119098;28;20195;-72
2023/01/20 11:19:00;;;;;;;4.93;4.47;;;;;;;9.55;77.71;93500.56;5118549;28;20257;-73
2023/01/20 11:21:32;;;;;;;3.75;3.40;;;;;;;9.52;77.50;93504.09;5117394;28;20203;-72
2023/01/20 11:23:59;;;;;;;3.03;2.72;;;;;;;9.48;76.61;93505.25;5118273;28;20611;-73
2023/01/20 11:26:28;;;;;;;3.15;2.22;;;;;;;9.44;74.56;93494.22;5118512;28;20243;-73
2023/01/20 11:28:57;;;;;;;1.70;1.60;;;;;;;9.38;72.93;93502.03;5117297;28;20195;-74
2023/01/20 11:31:36;;;;;;;1.50;1.40;;;;;;;9.13;70.13;93499.09;5117418;28;20196;-73
2023/01/20 11:34:14;;;;;;;1.60;1.10;;;;;;;8.95;70.97;93514.66;5117916;27;20172;-73
2023/01/20 11:36:42;;;;;;;2.00;1.33;;;;;;;8.77;70.65;93506.28;5117945;28;20515;-74
2023/01/20 11:39:25;;;;;;;2.20;1.80;;;;;;;8.70;71.20;93519.94;5118057;28;20243;-71
2023/01/20 11:42:09;;;;;;;1.45;1.35;;;;;;;8.62;70.68;93526.56;5117994;28;20631;-71
2023/01/20 11:44:42;;;;;;;1.23;1.10;;;;;;;8.32;70.79;93521.91;5117267;28;20200;-71
2023/01/20 11:47:21;;;;;;;1.77;1.67;;;;;;;8.17;72.42;93531.16;5118297;28;20249;-71
2023/01/20 11:50:12;;;;;;;1.50;1.40;;;;;;;8.14;73.03;93534.66;5117172;28;20373;-71
2023/01/20 11:52:43;;;;;;;1.52;1.42;;;;;;;8.09;73.41;93545.94;5117227;28;20206;-72
2023/01/20 11:55:13;;;;;;;1.20;1.10;;;;;;;8.02;72.80;93532.13;5117635;28;20191;-71
2023/01/20 11:57:45;;;;;;;1.00;1.00;;;;;;;7.96;72.36;93548.16;5116455;28;20227;-71
2023/01/20 12:00:34;;;;;;;1.02;0.90;;;;;;;7.86;71.95;93549.59;5117568;28;20195;-71